sensor_id;sensor_type;location;lat;lon;timestamp;temperature;humidity
4376;DHT22;2202;50.866;12.750;2023-07-20T00:02:24;15.30;97.90
4376;DHT22;2202;50.866;12.750;2023-07-20T00:04:51;15.30;97.90
4376;DHT22;2202;50.866;12.750;2023-07-20T00:07:18;15.30;98.00
4376;DHT22;2202;50.866;12.750;2023-07-20T00:09:45;15.40;98.10
4376;DHT22;2202;50.866;12.750;2023-07-20T00:12:13;15.40;97.80
4376;DHT22;2202;50.866;12.750;2023-07-20T00:14:41;15.40;97.90
4376;DHT22;2202;50.866;12.750;2023-07-20T00:17:08;15.50;97.70
4376;DHT22;2202;50.866;12.750;2023-07-20T00:19:35;15.40;97.60
4376;DHT22;2202;50.866;12.750;2023-07-20T00:22:02;15.40;98.00
4376;DHT22;2202;50.866;12.750;2023-07-20T00:24:30;15.30;98.10
4376;DHT22;2202;50.866;12.750;2023-07-20T00:26:57;15.30;98.30
4376;DHT22;2202;50.866;12.750;2023-07-20T00:29:23;15.30;98.20
4376;DHT22;2202;50.866;12.750;2023-07-20T00:31:52;15.30;98.30
4376;DHT22;2202;50.866;12.750;2023-07-20T00:34:18;15.20;98.30
4376;DHT22;2202;50.866;12.750;2023-07-20T00:36:45;15.20;98.40
4376;DHT22;2202;50.866;12.750;2023-07-20T00:39:14;15.20;98.40
4376;DHT22;2202;50.866;12.750;2023-07-20T00:41:42;15.10;98.40
4376;DHT22;2202;50.866;12.750;2023-07-20T00:44:08;15.20;98.40
4376;DHT22;2202;50.866;12.750;2023-07-20T00:46:35;15.20;98.20
4376;DHT22;2202;50.866;12.750;2023-07-20T00:49:04;15.10;98.30
4376;DHT22;2202;50.866;12.750;2023-07-20T00:51:31;15.10;98.20
4376;DHT22;2202;50.866;12.750;2023-07-20T00:53:58;15.00;98.20
4376;DHT22;2202;50.866;12.750;2023-07-20T00:56:25;15.00;98.40
4376;DHT22;2202;50.866;12.750;2023-07-20T00:58:52;15.00;98.40
4376;DHT22;2202;50.866;12.750;2023-07-20T01:01:19;15.00;98.40
4376;DHT22;2202;50.866;12.750;2023-07-20T01:03:46;15.00;98.30
4376;DHT22;2202;50.866;12.750;2023-07-20T01:06:26;15.00;98.30
4376;DHT22;2202;50.866;12.750;2023-07-20T01:09:02;15.00;98.30
4376;DHT22;2202;50.866;12.750;2023-07-20T01:11:37;14.80;98.80
4376;DHT22;2202;50.866;12.750;2023-07-20T01:14:05;14.80;99.20
4376;DHT22;2202;50.866;12.750;2023-07-20T01:16:33;14.80;99.40
4376;DHT22;2202;50.866;12.750;2023-07-20T01:18:59;14.80;99.70
4376;DHT22;2202;50.866;12.750;2023-07-20T01:21:31;14.80;99.80
4376;DHT22;2202;50.866;12.750;2023-07-20T01:27:26;14.70;99.90
4376;DHT22;2202;50.866;12.750;2023-07-20T01:30:22;14.70;99.60
4376;DHT22;2202;50.866;12.750;2023-07-20T01:32:54;14.70;99.70
4376;DHT22;2202;50.866;12.750;2023-07-20T01:35:24;14.70;99.50
4376;DHT22;2202;50.866;12.750;2023-07-20T01:37:54;14.50;99.50
4376;DHT22;2202;50.866;12.750;2023-07-20T01:40:22;14.50;99.70
4376;DHT22;2202;50.866;12.750;2023-07-20T01:42:51;14.40;99.70
4376;DHT22;2202;50.866;12.750;2023-07-20T01:45:18;14.50;99.80
4376;DHT22;2202;50.866;12.750;2023-07-20T01:47:45;14.40;99.90
4376;DHT22;2202;50.866;12.750;2023-07-20T01:50:13;14.40;99.80
4376;DHT22;2202;50.866;12.750;2023-07-20T01:52:40;14.30;99.90
4376;DHT22;2202;50.866;12.750;2023-07-20T01:55:07;14.30;99.90
4376;DHT22;2202;50.866;12.750;2023-07-20T01:57:35;14.20;99.90
4376;DHT22;2202;50.866;12.750;2023-07-20T02:00:02;14.20;99.90
4376;DHT22;2202;50.866;12.750;2023-07-20T02:02:29;14.20;99.90
4376;DHT22;2202;50.866;12.750;2023-07-20T02:04:56;14.20;99.60
4376;DHT22;2202;50.866;12.750;2023-07-20T02:07:24;14.20;99.60
4376;DHT22;2202;50.866;12.750;2023-07-20T02:09:51;14.20;99.30
4376;DHT22;2202;50.866;12.750;2023-07-20T02:12:18;14.20;99.00
4376;DHT22;2202;50.866;12.750;2023-07-20T02:14:45;14.10;98.60
4376;DHT22;2202;50.866;12.750;2023-07-20T02:17:13;14.00;99.10
4376;DHT22;2202;50.866;12.750;2023-07-20T02:19:40;13.90;99.60
4376;DHT22;2202;50.866;12.750;2023-07-20T02:22:07;13.90;99.70
4376;DHT22;2202;50.866;12.750;2023-07-20T02:24:35;13.90;99.90
4376;DHT22;2202;50.866;12.750;2023-07-20T02:27:03;13.90;99.80
4376;DHT22;2202;50.866;12.750;2023-07-20T02:29:29;13.90;99.80
4376;DHT22;2202;50.866;12.750;2023-07-20T02:31:56;13.90;99.40
4376;DHT22;2202;50.866;12.750;2023-07-20T02:34:23;13.80;99.50
4376;DHT22;2202;50.866;12.750;2023-07-20T02:36:50;13.80;99.30
4376;DHT22;2202;50.866;12.750;2023-07-20T02:39:17;13.70;99.00
4376;DHT22;2202;50.866;12.750;2023-07-20T02:41:45;13.70;99.00
4376;DHT22;2202;50.866;12.750;2023-07-20T02:44:12;13.60;99.50
4376;DHT22;2202;50.866;12.750;2023-07-20T02:46:40;13.50;99.70
4376;DHT22;2202;50.866;12.750;2023-07-20T02:49:07;13.60;99.80
4376;DHT22;2202;50.866;12.750;2023-07-20T02:51:34;13.60;99.60
4376;DHT22;2202;50.866;12.750;2023-07-20T02:54:01;13.50;99.50
4376;DHT22;2202;50.866;12.750;2023-07-20T02:56:28;13.50;99.50
4376;DHT22;2202;50.866;12.750;2023-07-20T02:58:57;13.40;99.30
4376;DHT22;2202;50.866;12.750;2023-07-20T03:01:24;13.30;99.30
4376;DHT22;2202;50.866;12.750;2023-07-20T03:03:54;13.20;99.40
4376;DHT22;2202;50.866;12.750;2023-07-20T03:06:21;13.10;99.60
4376;DHT22;2202;50.866;12.750;2023-07-20T03:08:48;13.10;99.60
4376;DHT22;2202;50.866;12.750;2023-07-20T03:11:18;13.10;99.80
4376;DHT22;2202;50.866;12.750;2023-07-20T03:13:46;13.10;99.90
4376;DHT22;2202;50.866;12.750;2023-07-20T03:16:19;13.10;99.90
4376;DHT22;2202;50.866;12.750;2023-07-20T03:18:46;13.10;99.90
4376;DHT22;2202;50.866;12.750;2023-07-20T03:21:13;13.20;99.90
4376;DHT22;2202;50.866;12.750;2023-07-20T03:23:40;13.20;99.80
4376;DHT22;2202;50.866;12.750;2023-07-20T03:26:08;13.20;99.80
4376;DHT22;2202;50.866;12.750;2023-07-20T03:28:34;13.10;99.60
4376;DHT22;2202;50.866;12.750;2023-07-20T03:31:01;13.10;99.70
4376;DHT22;2202;50.866;12.750;2023-07-20T03:33:30;13.20;99.70
4376;DHT22;2202;50.866;12.750;2023-07-20T03:35:57;13.30;99.60
4376;DHT22;2202;50.866;12.750;2023-07-20T03:38:25;13.30;99.50
4376;DHT22;2202;50.866;12.750;2023-07-20T03:40:53;13.30;99.20
4376;DHT22;2202;50.866;12.750;2023-07-20T03:43:21;13.30;99.50
4376;DHT22;2202;50.866;12.750;2023-07-20T03:45:48;13.40;99.40
4376;DHT22;2202;50.866;12.750;2023-07-20T03:48:16;13.40;99.20
4376;DHT22;2202;50.866;12.750;2023-07-20T03:50:45;13.40;99.30
4376;DHT22;2202;50.866;12.750;2023-07-20T03:53:12;13.40;99.40
4376;DHT22;2202;50.866;12.750;2023-07-20T03:55:39;13.40;99.40
4376;DHT22;2202;50.866;12.750;2023-07-20T03:58:07;13.40;99.40
4376;DHT22;2202;50.866;12.750;2023-07-20T04:00:34;13.40;99.60
4376;DHT22;2202;50.866;12.750;2023-07-20T04:03:01;13.40;99.80
4376;DHT22;2202;50.866;12.750;2023-07-20T04:05:28;13.40;99.90
4376;DHT22;2202;50.866;12.750;2023-07-20T04:07:56;13.40;99.90
4376;DHT22;2202;50.866;12.750;2023-07-20T04:10:23;13.50;99.90
4376;DHT22;2202;50.866;12.750;2023-07-20T04:12:49;13.60;99.90
4376;DHT22;2202;50.866;12.750;2023-07-20T04:15:16;13.80;99.90
4376;DHT22;2202;50.866;12.750;2023-07-20T04:17:45;13.80;99.90
4376;DHT22;2202;50.866;12.750;2023-07-20T04:20:11;13.90;99.60
4376;DHT22;2202;50.866;12.750;2023-07-20T04:22:38;13.90;99.60
4376;DHT22;2202;50.866;12.750;2023-07-20T04:25:08;14.00;99.60
4376;DHT22;2202;50.866;12.750;2023-07-20T04:27:35;14.00;99.60
4376;DHT22;2202;50.866;12.750;2023-07-20T04:30:03;14.00;99.70
4376;DHT22;2202;50.866;12.750;2023-07-20T04:32:30;14.10;99.60
4376;DHT22;2202;50.866;12.750;2023-07-20T04:34:59;14.10;99.60
4376;DHT22;2202;50.866;12.750;2023-07-20T04:37:26;14.10;99.40
4376;DHT22;2202;50.866;12.750;2023-07-20T04:39:52;14.20;99.60
4376;DHT22;2202;50.866;12.750;2023-07-20T04:42:21;14.20;99.30
4376;DHT22;2202;50.866;12.750;2023-07-20T04:44:48;14.30;99.40
4376;DHT22;2202;50.866;12.750;2023-07-20T04:47:14;14.30;98.80
4376;DHT22;2202;50.866;12.750;2023-07-20T04:49:41;14.30;99.00
4376;DHT22;2202;50.866;12.750;2023-07-20T04:52:08;14.30;99.00
4376;DHT22;2202;50.866;12.750;2023-07-20T04:54:35;14.30;99.00
4376;DHT22;2202;50.866;12.750;2023-07-20T04:57:02;14.40;99.10
4376;DHT22;2202;50.866;12.750;2023-07-20T04:59:30;14.40;98.70
4376;DHT22;2202;50.866;12.750;2023-07-20T05:01:57;14.30;98.70
4376;DHT22;2202;50.866;12.750;2023-07-20T05:04:23;14.40;98.90
4376;DHT22;2202;50.866;12.750;2023-07-20T05:06:50;14.40;98.80
4376;DHT22;2202;50.866;12.750;2023-07-20T05:09:17;14.50;98.40
4376;DHT22;2202;50.866;12.750;2023-07-20T05:11:44;14.30;98.60
4376;DHT22;2202;50.866;12.750;2023-07-20T05:14:12;14.30;98.80
4376;DHT22;2202;50.866;12.750;2023-07-20T05:16:40;14.20;99.10
4376;DHT22;2202;50.866;12.750;2023-07-20T05:19:07;14.20;99.30
4376;DHT22;2202;50.866;12.750;2023-07-20T05:21:34;14.20;99.60
4376;DHT22;2202;50.866;12.750;2023-07-20T05:24:01;14.20;99.90
4376;DHT22;2202;50.866;12.750;2023-07-20T05:26:28;14.20;99.90
4376;DHT22;2202;50.866;12.750;2023-07-20T05:28:54;14.00;99.20
4376;DHT22;2202;50.866;12.750;2023-07-20T05:31:21;13.80;99.10
4376;DHT22;2202;50.866;12.750;2023-07-20T05:33:49;13.70;99.10
4376;DHT22;2202;50.866;12.750;2023-07-20T05:36:16;13.60;99.10
4376;DHT22;2202;50.866;12.750;2023-07-20T05:38:43;13.60;98.90
4376;DHT22;2202;50.866;12.750;2023-07-20T05:41:10;13.60;99.10
4376;DHT22;2202;50.866;12.750;2023-07-20T05:43:37;13.70;99.30
4376;DHT22;2202;50.866;12.750;2023-07-20T05:46:04;13.80;99.20
4376;DHT22;2202;50.866;12.750;2023-07-20T05:48:31;13.80;98.90
4376;DHT22;2202;50.866;12.750;2023-07-20T05:50:59;13.80;99.00
4376;DHT22;2202;50.866;12.750;2023-07-20T05:53:26;13.80;98.90
4376;DHT22;2202;50.866;12.750;2023-07-20T05:55:53;13.70;99.10
4376;DHT22;2202;50.866;12.750;2023-07-20T05:58:20;13.80;99.20
4376;DHT22;2202;50.866;12.750;2023-07-20T06:00:48;13.80;98.80
4376;DHT22;2202;50.866;12.750;2023-07-20T06:03:16;13.80;98.70
4376;DHT22;2202;50.866;12.750;2023-07-20T06:05:43;13.80;98.70
4376;DHT22;2202;50.866;12.750;2023-07-20T06:08:11;13.80;98.80
4376;DHT22;2202;50.866;12.750;2023-07-20T06:10:38;14.00;98.60
4376;DHT22;2202;50.866;12.750;2023-07-20T06:13:06;14.00;98.50
4376;DHT22;2202;50.866;12.750;2023-07-20T06:15:33;14.00;98.80
4376;DHT22;2202;50.866;12.750;2023-07-20T06:18:01;14.10;99.00
4376;DHT22;2202;50.866;12.750;2023-07-20T06:20:29;14.10;98.60
4376;DHT22;2202;50.866;12.750;2023-07-20T06:22:56;14.10;98.80
4376;DHT22;2202;50.866;12.750;2023-07-20T06:25:24;14.20;99.00
4376;DHT22;2202;50.866;12.750;2023-07-20T06:27:51;14.20;98.90
4376;DHT22;2202;50.866;12.750;2023-07-20T06:30:19;14.30;98.60
4376;DHT22;2202;50.866;12.750;2023-07-20T06:32:46;14.40;98.50
4376;DHT22;2202;50.866;12.750;2023-07-20T06:35:13;14.50;98.00
4376;DHT22;2202;50.866;12.750;2023-07-20T06:37:39;14.70;97.80
4376;DHT22;2202;50.866;12.750;2023-07-20T06:40:07;14.80;97.20
4376;DHT22;2202;50.866;12.750;2023-07-20T06:42:36;14.90;96.80
4376;DHT22;2202;50.866;12.750;2023-07-20T06:45:04;15.00;96.40
4376;DHT22;2202;50.866;12.750;2023-07-20T06:47:31;15.10;96.10
4376;DHT22;2202;50.866;12.750;2023-07-20T06:49:58;15.10;94.60
4376;DHT22;2202;50.866;12.750;2023-07-20T06:52:25;15.10;94.70
4376;DHT22;2202;50.866;12.750;2023-07-20T06:54:52;15.10;94.90
4376;DHT22;2202;50.866;12.750;2023-07-20T06:57:19;15.10;94.80
4376;DHT22;2202;50.866;12.750;2023-07-20T06:59:47;15.20;94.70
4376;DHT22;2202;50.866;12.750;2023-07-20T07:02:14;15.50;95.00
4376;DHT22;2202;50.866;12.750;2023-07-20T07:04:41;15.50;94.30
4376;DHT22;2202;50.866;12.750;2023-07-20T07:07:08;15.50;94.80
4376;DHT22;2202;50.866;12.750;2023-07-20T07:09:35;15.50;94.90
4376;DHT22;2202;50.866;12.750;2023-07-20T07:12:02;15.40;95.20
4376;DHT22;2202;50.866;12.750;2023-07-20T07:14:29;15.20;95.60
4376;DHT22;2202;50.866;12.750;2023-07-20T07:16:57;15.30;95.50
4376;DHT22;2202;50.866;12.750;2023-07-20T07:19:24;15.50;96.10
4376;DHT22;2202;50.866;12.750;2023-07-20T07:21:51;15.70;95.40
4376;DHT22;2202;50.866;12.750;2023-07-20T07:24:18;15.90;94.90
4376;DHT22;2202;50.866;12.750;2023-07-20T07:26:44;16.20;95.40
4376;DHT22;2202;50.866;12.750;2023-07-20T07:29:11;16.50;94.10
4376;DHT22;2202;50.866;12.750;2023-07-20T07:31:38;16.80;93.40
4376;DHT22;2202;50.866;12.750;2023-07-20T07:34:07;16.90;93.50
4376;DHT22;2202;50.866;12.750;2023-07-20T07:36:33;17.00;93.10
4376;DHT22;2202;50.866;12.750;2023-07-20T07:39:00;16.70;92.30
4376;DHT22;2202;50.866;12.750;2023-07-20T07:41:27;16.60;92.60
4376;DHT22;2202;50.866;12.750;2023-07-20T07:43:54;16.90;92.20
4376;DHT22;2202;50.866;12.750;2023-07-20T07:46:21;16.90;93.50
4376;DHT22;2202;50.866;12.750;2023-07-20T07:48:48;17.30;94.80
4376;DHT22;2202;50.866;12.750;2023-07-20T07:51:16;17.70;92.20
4376;DHT22;2202;50.866;12.750;2023-07-20T07:53:43;17.80;90.50
4376;DHT22;2202;50.866;12.750;2023-07-20T07:56:10;17.60;90.20
4376;DHT22;2202;50.866;12.750;2023-07-20T07:58:37;17.20;91.20
4376;DHT22;2202;50.866;12.750;2023-07-20T08:01:04;17.00;91.30
4376;DHT22;2202;50.866;12.750;2023-07-20T08:03:31;16.70;91.20
4376;DHT22;2202;50.866;12.750;2023-07-20T08:05:57;16.70;92.40
4376;DHT22;2202;50.866;12.750;2023-07-20T08:08:26;16.70;92.40
4376;DHT22;2202;50.866;12.750;2023-07-20T08:10:54;16.80;92.40
4376;DHT22;2202;50.866;12.750;2023-07-20T08:13:21;16.50;92.30
4376;DHT22;2202;50.866;12.750;2023-07-20T08:15:50;16.60;92.80
4376;DHT22;2202;50.866;12.750;2023-07-20T08:18:17;16.60;92.80
4376;DHT22;2202;50.866;12.750;2023-07-20T08:20:44;16.80;93.10
4376;DHT22;2202;50.866;12.750;2023-07-20T08:23:11;16.90;92.80
4376;DHT22;2202;50.866;12.750;2023-07-20T08:25:39;17.10;92.50
4376;DHT22;2202;50.866;12.750;2023-07-20T08:28:09;17.30;91.60
4376;DHT22;2202;50.866;12.750;2023-07-20T08:30:40;17.50;90.80
4376;DHT22;2202;50.866;12.750;2023-07-20T08:33:07;17.80;91.40
4376;DHT22;2202;50.866;12.750;2023-07-20T08:35:34;18.00;87.40
4376;DHT22;2202;50.866;12.750;2023-07-20T08:38:01;18.20;88.40
4376;DHT22;2202;50.866;12.750;2023-07-20T08:40:30;18.30;86.20
4376;DHT22;2202;50.866;12.750;2023-07-20T08:42:58;18.30;85.60
4376;DHT22;2202;50.866;12.750;2023-07-20T08:45:27;18.10;86.00
4376;DHT22;2202;50.866;12.750;2023-07-20T08:47:55;17.90;87.40
4376;DHT22;2202;50.866;12.750;2023-07-20T08:50:23;17.90;89.20
4376;DHT22;2202;50.866;12.750;2023-07-20T08:52:52;18.20;86.60
4376;DHT22;2202;50.866;12.750;2023-07-20T08:55:20;18.70;86.60
4376;DHT22;2202;50.866;12.750;2023-07-20T08:57:50;18.80;81.80
4376;DHT22;2202;50.866;12.750;2023-07-20T09:00:19;19.00;79.80
4376;DHT22;2202;50.866;12.750;2023-07-20T09:02:48;19.00;80.00
4376;DHT22;2202;50.866;12.750;2023-07-20T09:05:16;19.30;77.80
4376;DHT22;2202;50.866;12.750;2023-07-20T09:07:43;19.30;79.00
4376;DHT22;2202;50.866;12.750;2023-07-20T09:10:10;19.50;79.00
4376;DHT22;2202;50.866;12.750;2023-07-20T09:12:39;19.30;78.00
4376;DHT22;2202;50.866;12.750;2023-07-20T09:15:07;19.10;76.80
4376;DHT22;2202;50.866;12.750;2023-07-20T09:17:35;19.10;77.40
4376;DHT22;2202;50.866;12.750;2023-07-20T09:20:04;18.80;78.20
4376;DHT22;2202;50.866;12.750;2023-07-20T09:22:36;18.70;80.00
4376;DHT22;2202;50.866;12.750;2023-07-20T09:25:06;18.50;77.60
4376;DHT22;2202;50.866;12.750;2023-07-20T09:27:37;18.40;79.80
4376;DHT22;2202;50.866;12.750;2023-07-20T09:30:05;18.60;80.00
4376;DHT22;2202;50.866;12.750;2023-07-20T09:32:40;18.70;77.20
4376;DHT22;2202;50.866;12.750;2023-07-20T09:35:12;18.60;77.40
4376;DHT22;2202;50.866;12.750;2023-07-20T09:37:40;18.20;79.00
4376;DHT22;2202;50.866;12.750;2023-07-20T09:40:07;18.60;79.40
4376;DHT22;2202;50.866;12.750;2023-07-20T09:42:36;19.00;78.00
4376;DHT22;2202;50.866;12.750;2023-07-20T09:45:07;19.10;76.60
4376;DHT22;2202;50.866;12.750;2023-07-20T09:47:36;18.90;76.60
4376;DHT22;2202;50.866;12.750;2023-07-20T09:50:06;18.70;77.80
4376;DHT22;2202;50.866;12.750;2023-07-20T09:52:39;18.70;76.40
4376;DHT22;2202;50.866;12.750;2023-07-20T09:55:07;18.90;76.00
4376;DHT22;2202;50.866;12.750;2023-07-20T09:57:35;18.80;74.80
4376;DHT22;2202;50.866;12.750;2023-07-20T10:00:04;18.50;75.40
4376;DHT22;2202;50.866;12.750;2023-07-20T10:02:37;18.40;76.20
4376;DHT22;2202;50.866;12.750;2023-07-20T10:05:11;18.40;77.00
4376;DHT22;2202;50.866;12.750;2023-07-20T10:07:43;18.40;77.40
4376;DHT22;2202;50.866;12.750;2023-07-20T10:10:10;18.40;76.60
4376;DHT22;2202;50.866;12.750;2023-07-20T10:12:39;18.30;77.00
4376;DHT22;2202;50.866;12.750;2023-07-20T10:15:11;18.30;78.00
4376;DHT22;2202;50.866;12.750;2023-07-20T10:17:57;18.30;78.20
4376;DHT22;2202;50.866;12.750;2023-07-20T10:20:27;18.30;77.40
4376;DHT22;2202;50.866;12.750;2023-07-20T10:22:55;18.20;77.80
4376;DHT22;2202;50.866;12.750;2023-07-20T10:25:23;18.20;78.00
4376;DHT22;2202;50.866;12.750;2023-07-20T10:27:51;18.20;77.60
4376;DHT22;2202;50.866;12.750;2023-07-20T10:30:18;18.20;79.00
4376;DHT22;2202;50.866;12.750;2023-07-20T10:32:47;18.20;81.40
4376;DHT22;2202;50.866;12.750;2023-07-20T10:35:14;18.00;81.40
4376;DHT22;2202;50.866;12.750;2023-07-20T10:38:01;18.00;80.60
4376;DHT22;2202;50.866;12.750;2023-07-20T10:40:32;18.10;79.40
4376;DHT22;2202;50.866;12.750;2023-07-20T10:43:01;18.30;80.80
4376;DHT22;2202;50.866;12.750;2023-07-20T10:45:39;18.50;79.40
4376;DHT22;2202;50.866;12.750;2023-07-20T10:48:13;18.60;76.20
4376;DHT22;2202;50.866;12.750;2023-07-20T10:50:41;18.50;79.00
4376;DHT22;2202;50.866;12.750;2023-07-20T10:53:15;18.60;77.60
4376;DHT22;2202;50.866;12.750;2023-07-20T10:55:42;18.60;76.00
4376;DHT22;2202;50.866;12.750;2023-07-20T10:58:12;18.40;75.80
4376;DHT22;2202;50.866;12.750;2023-07-20T11:00:56;18.40;75.80
4376;DHT22;2202;50.866;12.750;2023-07-20T11:03:29;18.40;76.20
4376;DHT22;2202;50.866;12.750;2023-07-20T11:05:57;18.80;76.40
4376;DHT22;2202;50.866;12.750;2023-07-20T11:08:41;19.20;71.00
4376;DHT22;2202;50.866;12.750;2023-07-20T11:11:25;19.30;71.60
4376;DHT22;2202;50.866;12.750;2023-07-20T11:13:56;19.20;70.80
4376;DHT22;2202;50.866;12.750;2023-07-20T11:16:34;19.30;72.00
4376;DHT22;2202;50.866;12.750;2023-07-20T11:19:02;19.30;72.00
4376;DHT22;2202;50.866;12.750;2023-07-20T11:21:29;19.50;72.60
4376;DHT22;2202;50.866;12.750;2023-07-20T11:23:58;19.30;71.00
4376;DHT22;2202;50.866;12.750;2023-07-20T11:26:25;19.20;71.40
4376;DHT22;2202;50.866;12.750;2023-07-20T11:28:52;19.50;71.60
4376;DHT22;2202;50.866;12.750;2023-07-20T11:31:19;19.50;68.00
4376;DHT22;2202;50.866;12.750;2023-07-20T11:33:46;19.40;68.40
4376;DHT22;2202;50.866;12.750;2023-07-20T11:36:13;19.90;69.40
4376;DHT22;2202;50.866;12.750;2023-07-20T11:38:41;20.30;67.00
4376;DHT22;2202;50.866;12.750;2023-07-20T11:41:10;20.30;63.00
4376;DHT22;2202;50.866;12.750;2023-07-20T11:43:38;20.10;64.20
4376;DHT22;2202;50.866;12.750;2023-07-20T11:46:06;19.90;64.00
4376;DHT22;2202;50.866;12.750;2023-07-20T11:48:32;19.40;71.00
4376;DHT22;2202;50.866;12.750;2023-07-20T11:50:59;18.70;75.20
4376;DHT22;2202;50.866;12.750;2023-07-20T11:53:26;18.00;77.80
4376;DHT22;2202;50.866;12.750;2023-07-20T11:55:53;17.80;79.40
4376;DHT22;2202;50.866;12.750;2023-07-20T11:58:22;17.30;82.00
4376;DHT22;2202;50.866;12.750;2023-07-20T12:00:48;17.20;85.40
4376;DHT22;2202;50.866;12.750;2023-07-20T12:03:15;16.90;88.00
4376;DHT22;2202;50.866;12.750;2023-07-20T12:05:42;16.90;89.20
4376;DHT22;2202;50.866;12.750;2023-07-20T12:08:10;16.90;89.80
4376;DHT22;2202;50.866;12.750;2023-07-20T12:10:39;16.90;90.50
4376;DHT22;2202;50.866;12.750;2023-07-20T12:13:09;17.00;90.70
4376;DHT22;2202;50.866;12.750;2023-07-20T12:15:38;16.90;90.30
4376;DHT22;2202;50.866;12.750;2023-07-20T12:18:05;17.00;90.70
4376;DHT22;2202;50.866;12.750;2023-07-20T12:20:33;17.10;89.60
4376;DHT22;2202;50.866;12.750;2023-07-20T12:23:03;17.10;90.10
4376;DHT22;2202;50.866;12.750;2023-07-20T12:25:36;17.10;90.20
4376;DHT22;2202;50.866;12.750;2023-07-20T12:28:05;17.10;91.50
4376;DHT22;2202;50.866;12.750;2023-07-20T12:30:31;17.10;92.00
4376;DHT22;2202;50.866;12.750;2023-07-20T12:33:00;17.30;91.40
4376;DHT22;2202;50.866;12.750;2023-07-20T12:35:27;17.70;90.30
4376;DHT22;2202;50.866;12.750;2023-07-20T12:37:54;17.80;84.40
4376;DHT22;2202;50.866;12.750;2023-07-20T12:40:21;17.80;88.00
4376;DHT22;2202;50.866;12.750;2023-07-20T12:42:48;17.90;83.60
4376;DHT22;2202;50.866;12.750;2023-07-20T12:45:15;18.10;86.80
4376;DHT22;2202;50.866;12.750;2023-07-20T12:47:42;18.20;80.80
4376;DHT22;2202;50.866;12.750;2023-07-20T12:50:11;18.50;81.00
4376;DHT22;2202;50.866;12.750;2023-07-20T12:52:38;18.80;80.20
4376;DHT22;2202;50.866;12.750;2023-07-20T12:55:07;18.50;76.20
4376;DHT22;2202;50.866;12.750;2023-07-20T12:57:34;18.30;78.40
4376;DHT22;2202;50.866;12.750;2023-07-20T13:00:02;18.20;77.80
4376;DHT22;2202;50.866;12.750;2023-07-20T13:02:30;18.20;78.40
4376;DHT22;2202;50.866;12.750;2023-07-20T13:04:57;18.30;81.60
4376;DHT22;2202;50.866;12.750;2023-07-20T13:07:31;18.30;78.40
4376;DHT22;2202;50.866;12.750;2023-07-20T13:09:58;18.30;77.40
4376;DHT22;2202;50.866;12.750;2023-07-20T13:12:26;18.40;79.00
4376;DHT22;2202;50.866;12.750;2023-07-20T13:14:54;18.40;79.20
4376;DHT22;2202;50.866;12.750;2023-07-20T13:17:21;18.20;78.20
4376;DHT22;2202;50.866;12.750;2023-07-20T13:19:47;17.90;82.20
4376;DHT22;2202;50.866;12.750;2023-07-20T13:22:14;18.30;82.20
4376;DHT22;2202;50.866;12.750;2023-07-20T13:24:44;18.50;80.00
4376;DHT22;2202;50.866;12.750;2023-07-20T13:27:12;18.60;77.40
4376;DHT22;2202;50.866;12.750;2023-07-20T13:29:39;18.70;78.40
4376;DHT22;2202;50.866;12.750;2023-07-20T13:32:07;18.50;79.00
4376;DHT22;2202;50.866;12.750;2023-07-20T13:34:34;19.00;80.60
4376;DHT22;2202;50.866;12.750;2023-07-20T13:37:01;19.60;76.80
4376;DHT22;2202;50.866;12.750;2023-07-20T13:39:28;19.70;74.00
4376;DHT22;2202;50.866;12.750;2023-07-20T13:41:57;19.80;72.00
4376;DHT22;2202;50.866;12.750;2023-07-20T13:44:23;19.70;73.60
4376;DHT22;2202;50.866;12.750;2023-07-20T13:46:50;19.50;75.20
4376;DHT22;2202;50.866;12.750;2023-07-20T13:49:17;19.50;73.40
4376;DHT22;2202;50.866;12.750;2023-07-20T13:51:44;19.40;72.60
4376;DHT22;2202;50.866;12.750;2023-07-20T13:54:11;19.10;70.40
4376;DHT22;2202;50.866;12.750;2023-07-20T13:56:38;18.80;74.80
4376;DHT22;2202;50.866;12.750;2023-07-20T13:59:06;18.60;73.80
4376;DHT22;2202;50.866;12.750;2023-07-20T14:01:33;18.70;76.20
4376;DHT22;2202;50.866;12.750;2023-07-20T14:04:01;18.80;73.80
4376;DHT22;2202;50.866;12.750;2023-07-20T14:06:30;18.80;74.00
4376;DHT22;2202;50.866;12.750;2023-07-20T14:08:58;18.60;73.80
4376;DHT22;2202;50.866;12.750;2023-07-20T14:11:25;19.10;74.40
4376;DHT22;2202;50.866;12.750;2023-07-20T14:13:52;19.40;69.00
4376;DHT22;2202;50.866;12.750;2023-07-20T14:16:21;19.50;69.80
4376;DHT22;2202;50.866;12.750;2023-07-20T14:18:48;19.50;70.40
4376;DHT22;2202;50.866;12.750;2023-07-20T14:21:15;19.40;69.40
4376;DHT22;2202;50.866;12.750;2023-07-20T14:23:42;19.20;69.80
4376;DHT22;2202;50.866;12.750;2023-07-20T14:26:09;19.20;72.20
4376;DHT22;2202;50.866;12.750;2023-07-20T14:28:35;19.30;71.20
4376;DHT22;2202;50.866;12.750;2023-07-20T14:31:03;19.00;70.60
4376;DHT22;2202;50.866;12.750;2023-07-20T14:33:31;19.00;72.40
4376;DHT22;2202;50.866;12.750;2023-07-20T14:35:58;18.80;70.40
4376;DHT22;2202;50.866;12.750;2023-07-20T14:38:27;18.80;69.60
4376;DHT22;2202;50.866;12.750;2023-07-20T14:40:53;18.80;70.00
4376;DHT22;2202;50.866;12.750;2023-07-20T14:43:20;18.70;69.00
4376;DHT22;2202;50.866;12.750;2023-07-20T14:45:47;18.50;70.80
4376;DHT22;2202;50.866;12.750;2023-07-20T14:48:14;18.50;70.60
4376;DHT22;2202;50.866;12.750;2023-07-20T14:50:42;18.40;70.80
4376;DHT22;2202;50.866;12.750;2023-07-20T14:53:11;18.40;70.40
4376;DHT22;2202;50.866;12.750;2023-07-20T14:55:37;18.20;71.00
4376;DHT22;2202;50.866;12.750;2023-07-20T14:58:04;18.50;74.00
4376;DHT22;2202;50.866;12.750;2023-07-20T15:00:31;18.80;69.60
4376;DHT22;2202;50.866;12.750;2023-07-20T15:02:58;19.20;70.20
4376;DHT22;2202;50.866;12.750;2023-07-20T15:05:25;19.40;64.60
4376;DHT22;2202;50.866;12.750;2023-07-20T15:07:54;19.40;66.20
4376;DHT22;2202;50.866;12.750;2023-07-20T15:10:20;19.00;67.40
4376;DHT22;2202;50.866;12.750;2023-07-20T15:12:47;18.80;67.20
4376;DHT22;2202;50.866;12.750;2023-07-20T15:15:14;18.60;70.00
4376;DHT22;2202;50.866;12.750;2023-07-20T15:17:43;18.60;69.80
4376;DHT22;2202;50.866;12.750;2023-07-20T15:20:12;18.70;71.00
4376;DHT22;2202;50.866;12.750;2023-07-20T15:22:39;18.80;68.80
4376;DHT22;2202;50.866;12.750;2023-07-20T15:25:09;19.00;66.60
4376;DHT22;2202;50.866;12.750;2023-07-20T15:27:37;19.10;68.80
4376;DHT22;2202;50.866;12.750;2023-07-20T15:30:05;19.40;67.80
4376;DHT22;2202;50.866;12.750;2023-07-20T15:32:32;19.60;66.40
4376;DHT22;2202;50.866;12.750;2023-07-20T15:34:59;19.60;64.00
4376;DHT22;2202;50.866;12.750;2023-07-20T15:37:26;19.20;63.40
4376;DHT22;2202;50.866;12.750;2023-07-20T15:39:53;19.10;64.40
4376;DHT22;2202;50.866;12.750;2023-07-20T15:42:21;19.00;65.60
4376;DHT22;2202;50.866;12.750;2023-07-20T15:44:48;19.20;68.80
4376;DHT22;2202;50.866;12.750;2023-07-20T15:47:15;19.60;64.20
4376;DHT22;2202;50.866;12.750;2023-07-20T15:49:43;19.90;61.60
4376;DHT22;2202;50.866;12.750;2023-07-20T15:52:09;19.70;59.60
4376;DHT22;2202;50.866;12.750;2023-07-20T15:54:39;19.60;60.80